Time,TemperatureF,DewpointF,PressureIn,WindDirection,WindDirectionDegrees,WindSpeedMPH,WindSpeedGustMPH,Humidity,HourlyPrecipIn,Conditions,Clouds,dailyrainin,SolarRadiationWatts/m^2,SoftwareType,DateUTC
2013-05-19 00:00:00,64.6,51.7,29.97,East,88,1.0,1.0,63,0.00,,,0.00,0,Wunderground v.1.15,2013-05-19 04:00:00,
2013-05-19 00:01:00,64.6,51.7,29.97,East,89,1.0,1.0,63,0.00,,,0.00,0,Wunderground v.1.15,2013-05-19 04:01:00,
2013-05-19 00:02:00,64.5,51.6,29.97,East,88,1.0,1.0,63,0.00,,,0.00,0,Wunderground v.1.15,2013-05-19 04:02:00,
2013-05-19 00:03:00,64.5,52.0,29.97,East,88,1.0,1.0,64,0.00,,,0.00,0,Wunderground v.1.15,2013-05-19 04:03:00,
2013-05-19 00:04:00,64.5,51.6,29.97,East,89,0.0,1.0,63,0.00,,,0.00,0,Wunderground v.1.15,2013-05-19 04:04:00,
2013-05-19 00:06:00,64.4,52.0,29.97,East,89,0.0,1.0,64,0.00,,,0.00,0,Wunderground v.1.15,2013-05-19 04:06:00,
2013-05-19 00:11:00,64.2,51.3,29.97,East,89,0.0,1.0,63,0.00,,,0.00,0,Wunderground v.1.15,2013-05-19 04:11:00,
2013-05-19 00:17:00,64.0,51.1,29.97,East,88,1.0,3.0,63,0.00,,,0.00,0,Wunderground v.1.15,2013-05-19 04:17:00,
2013-05-19 00:23:00,64.0,50.3,29.97,East,89,2.0,2.0,61,0.00,,,0.00,0,Wunderground v.1.15,2013-05-19 04:23:00,
2013-05-19 00:29:00,63.9,50.6,29.97,East,88,1.0,2.0,62,0.00,,,0.00,0,Wunderground v.1.15,2013-05-19 04:29:00,
2013-05-19 00:35:00,63.5,51.5,29.97,East,89,0.0,1.0,65,0.00,,,0.00,0,Wunderground v.1.15,2013-05-19 04:35:00,
2013-05-19 00:41:00,63.1,51.6,29.97,East,89,0.0,1.0,66,0.00,,,0.00,0,Wunderground v.1.15,2013-05-19 04:41:00,
2013-05-19 00:47:00,62.8,50.4,29.97,East,89,1.0,3.0,64,0.00,,,0.00,0,Wunderground v.1.15,2013-05-19 04:47:00,
2013-05-19 00:53:00,62.7,51.2,29.97,East,88,1.0,3.0,66,0.00,,,0.00,0,Wunderground v.1.15,2013-05-19 04:53:00,
2013-05-19 00:58:00,62.4,50.5,29.97,East,88,2.0,3.0,65,0.00,,,0.00,0,Wunderground v.1.15,2013-05-19 04:58:00,
2013-05-19 01:04:00,62.2,50.7,29.96,East,88,1.0,3.0,66,0.00,,,0.00,0,Wunderground v.1.15,2013-05-19 05:04:00,
2013-05-19 01:10:00,62.2,49.9,29.96,ENE,78,1.0,3.0,64,0.00,,,0.00,0,Wunderground v.1.15,2013-05-19 05:10:00,
2013-05-19 01:15:00,62.2,50.0,29.96,ENE,78,0.0,-999.0,64,-99.99,,,0.00,,weatherlink.com 1.10,2013-05-19 05:15:00,
2013-05-19 01:20:00,62.1,49.4,29.95,ENE,78,0.0,3.0,63,0.00,,,0.00,0,Wunderground v.1.15,2013-05-19 05:20:00,
2013-05-19 01:25:00,62.0,49.3,29.95,ENE,78,0.0,3.0,63,0.00,,,0.00,0,Wunderground v.1.15,2013-05-19 05:25:00,
2013-05-19 01:31:00,61.9,49.0,29.95,ENE,78,1.0,-999.0,64,-99.99,,,0.00,,weatherlink.com 1.10,2013-05-19 05:31:00,
2013-05-19 01:37:00,61.5,50.0,29.95,ENE,78,2.0,3.0,66,0.00,,,0.00,0,Wunderground v.1.15,2013-05-19 05:37:00,
2013-05-19 01:42:00,61.3,49.8,29.95,ENE,78,2.0,3.0,66,0.00,,,0.00,0,Wunderground v.1.15,2013-05-19 05:42:00,
2013-05-19 01:48:00,61.1,49.2,29.95,ENE,78,1.0,3.0,65,0.00,,,0.00,0,Wunderground v.1.15,2013-05-19 05:48:00,
2013-05-19 01:54:00,60.9,49.1,29.94,ENE,78,1.0,3.0,65,0.00,,,0.00,0,Wunderground v.1.15,2013-05-19 05:54:00,
2013-05-19 02:00:00,61.0,49.0,29.94,ENE,78,0.0,-999.0,64,-99.99,,,0.00,,weatherlink.com 1.10,2013-05-19 06:00:00,
2013-05-19 02:05:00,61.0,49.6,29.94,East,84,1.0,3.0,66,0.00,,,0.00,0,Wunderground v.1.15,2013-05-19 06:05:00,
2013-05-19 02:11:00,60.8,49.8,29.93,East,83,1.0,3.0,67,0.00,,,0.00,0,Wunderground v.1.15,2013-05-19 06:11:00,
2013-05-19 02:16:00,60.7,49.0,29.93,East,83,0.0,-999.0,66,-99.99,,,0.00,,weatherlink.com 1.10,2013-05-19 06:16:00,
2013-05-19 02:21:00,60.7,48.4,29.93,ENE,73,1.0,3.0,64,0.00,,,0.00,0,Wunderground v.1.15,2013-05-19 06:21:00,
2013-05-19 02:27:00,60.7,49.3,29.93,ENE,73,2.0,3.0,66,0.00,,,0.00,0,Wunderground v.1.15,2013-05-19 06:27:00,
2013-05-19 02:33:00,60.3,49.3,29.93,ENE,75,3.0,4.0,67,0.00,,,0.00,0,Wunderground v.1.15,2013-05-19 06:33:00,
2013-05-19 02:38:00,60.1,48.7,29.93,ENE,66,3.0,4.0,66,0.00,,,0.00,0,Wunderground v.1.15,2013-05-19 06:38:00,
2013-05-19 02:44:00,60.0,48.6,29.93,ENE,66,2.0,3.0,66,0.00,,,0.00,0,Wunderground v.1.15,2013-05-19 06:44:00,
2013-05-19 02:50:00,59.9,48.9,29.93,ENE,66,2.0,3.0,67,0.00,,,0.00,0,Wunderground v.1.15,2013-05-19 06:50:00,
2013-05-19 02:56:00,59.6,48.6,29.93,ENE,68,2.0,3.0,67,0.00,,,0.00,0,Wunderground v.1.15,2013-05-19 06:56:00,
2013-05-19 03:01:00,59.7,48.3,29.93,ENE,68,2.0,5.0,66,0.00,,,0.00,0,Wunderground v.1.15,2013-05-19 07:01:00,
2013-05-19 03:07:00,59.5,48.1,29.93,ENE,68,2.0,5.0,66,0.00,,,0.00,0,Wunderground v.1.15,2013-05-19 07:07:00,
2013-05-19 03:13:00,59.3,47.9,29.93,ENE,68,2.0,5.0,66,0.00,,,0.00,0,Wunderground v.1.15,2013-05-19 07:13:00,
2013-05-19 03:19:00,59.2,47.8,29.93,ENE,68,1.0,5.0,66,0.00,,,0.00,0,Wunderground v.1.15,2013-05-19 07:19:00,
2013-05-19 03:25:00,59.1,48.1,29.93,ENE,68,1.0,5.0,67,0.00,,,0.00,0,Wunderground v.1.15,2013-05-19 07:25:00,
2013-05-19 03:31:00,59.0,48.0,29.93,ENE,68,0.0,-999.0,67,-99.99,,,0.00,,weatherlink.com 1.10,2013-05-19 07:31:00,
2013-05-19 03:36:00,59.0,48.1,29.93,ENE,68,0.0,5.0,67,0.00,,,0.00,0,Wunderground v.1.15,2013-05-19 07:36:00,
2013-05-19 03:42:00,59.0,47.7,29.94,ENE,68,0.0,5.0,66,0.00,,,0.00,0,Wunderground v.1.15,2013-05-19 07:42:00,
2013-05-19 03:48:00,58.9,48.0,29.94,ENE,68,1.0,5.0,67,0.00,,,0.00,0,Wunderground v.1.15,2013-05-19 07:48:00,
2013-05-19 03:53:00,58.6,48.5,29.94,ENE,68,1.0,5.0,69,0.00,,,0.00,0,Wunderground v.1.15,2013-05-19 07:53:00,
2013-05-19 03:59:00,58.3,48.2,29.94,ENE,68,1.0,5.0,69,0.00,,,0.00,0,Wunderground v.1.15,2013-05-19 07:59:00,
2013-05-19 04:05:00,58.1,47.6,29.94,ENE,68,1.0,3.0,68,0.00,,,0.00,0,Wunderground v.1.15,2013-05-19 08:05:00,
2013-05-19 04:11:00,58.0,47.5,29.94,ENE,68,1.0,3.0,68,0.00,,,0.00,0,Wunderground v.1.15,2013-05-19 08:11:00,
2013-05-19 04:17:00,58.0,47.9,29.94,ENE,68,0.0,3.0,69,0.00,,,0.00,0,Wunderground v.1.15,2013-05-19 08:17:00,
2013-05-19 04:23:00,58.0,47.9,29.94,ENE,68,0.0,3.0,69,0.00,,,0.00,0,Wunderground v.1.15,2013-05-19 08:23:00,
2013-05-19 04:29:00,57.9,47.4,29.94,ENE,68,0.0,3.0,68,0.00,,,0.00,0,Wunderground v.1.15,2013-05-19 08:29:00,
2013-05-19 04:34:00,57.8,47.7,29.94,ENE,68,0.0,3.0,69,0.00,,,0.00,0,Wunderground v.1.15,2013-05-19 08:34:00,
2013-05-19 04:40:00,57.8,47.7,29.94,ENE,68,0.0,3.0,69,0.00,,,0.00,0,Wunderground v.1.15,2013-05-19 08:40:00,
2013-05-19 04:46:00,57.7,47.0,29.94,ENE,78,1.0,-999.0,68,-99.99,,,0.00,,weatherlink.com 1.10,2013-05-19 08:46:00,
2013-05-19 04:52:00,57.7,47.6,29.94,SE,126,0.0,3.0,69,0.00,,,0.00,0,Wunderground v.1.15,2013-05-19 08:52:00,
2013-05-19 04:57:00,57.6,47.5,29.94,ESE,123,0.0,3.0,69,0.00,,,0.00,0,Wunderground v.1.15,2013-05-19 08:57:00,
2013-05-19 05:03:00,57.6,47.0,29.94,ESE,122,1.0,-999.0,69,-99.99,,,0.00,,weatherlink.com 1.10,2013-05-19 09:03:00,
2013-05-19 05:08:00,57.5,47.8,29.94,ESE,105,1.0,3.0,70,0.00,,,0.00,0,Wunderground v.1.15,2013-05-19 09:08:00,
2013-05-19 05:14:00,57.4,47.7,29.94,East,96,1.0,3.0,70,0.00,,,0.00,0,Wunderground v.1.15,2013-05-19 09:14:00,
2013-05-19 05:20:00,57.3,48.3,29.94,ENE,74,2.0,2.0,72,0.00,,,0.00,0,Wunderground v.1.15,2013-05-19 09:20:00,
2013-05-19 05:25:00,57.1,47.8,29.94,East,96,2.0,3.0,71,0.00,,,0.00,0,Wunderground v.1.15,2013-05-19 09:25:00,
2013-05-19 05:31:00,57.1,47.8,29.93,East,94,2.0,3.0,71,0.00,,,0.00,0,Wunderground v.1.15,2013-05-19 09:31:00,
2013-05-19 05:37:00,57.0,48.1,29.93,East,91,1.0,3.0,72,0.00,,,0.00,0,Wunderground v.1.15,2013-05-19 09:37:00,
2013-05-19 05:43:00,56.9,48.3,29.93,East,87,1.0,4.0,73,0.00,,,0.00,0,Wunderground v.1.15,2013-05-19 09:43:00,
2013-05-19 05:49:00,56.7,49.2,29.94,East,87,2.0,4.0,76,0.00,,,0.00,0,Wunderground v.1.15,2013-05-19 09:49:00,
2013-05-19 05:55:00,56.6,48.4,29.94,East,87,1.0,3.0,74,0.00,,,0.00,0,Wunderground v.1.15,2013-05-19 09:55:00,
2013-05-19 06:00:00,56.4,48.2,29.94,East,91,1.0,2.0,74,0.00,,,0.00,0,Wunderground v.1.15,2013-05-19 10:00:00,
2013-05-19 06:06:00,56.3,48.1,29.94,East,100,1.0,4.0,74,0.00,,,0.00,0,Wunderground v.1.15,2013-05-19 10:06:00,
2013-05-19 06:11:00,56.3,48.5,29.94,East,98,1.0,4.0,75,0.00,,,0.00,0,Wunderground v.1.15,2013-05-19 10:11:00,
2013-05-19 06:17:00,56.2,48.4,29.94,East,92,1.0,4.0,75,0.00,,,0.00,0,Wunderground v.1.15,2013-05-19 10:17:00,
2013-05-19 06:22:00,56.1,48.3,29.94,ESE,111,1.0,4.0,75,0.00,,,0.00,5,Wunderground v.1.15,2013-05-19 10:22:00,
2013-05-19 06:28:00,56.1,48.3,29.94,East,87,1.0,4.0,75,0.00,,,0.00,9,Wunderground v.1.15,2013-05-19 10:28:00,
2013-05-19 06:34:00,56.2,48.7,29.95,East,88,0.0,4.0,76,0.00,,,0.00,14,Wunderground v.1.15,2013-05-19 10:34:00,
2013-05-19 06:40:00,56.3,48.8,29.94,East,88,0.0,4.0,76,0.00,,,0.00,18,Wunderground v.1.15,2013-05-19 10:40:00,
2013-05-19 06:45:00,56.3,49.0,29.94,East,88,3.0,-999.0,77,-99.99,,,0.00,,weatherlink.com 1.10,2013-05-19 10:45:00,
2013-05-19 06:51:00,56.4,49.3,29.94,East,88,1.0,4.0,77,0.00,,,0.00,32,Wunderground v.1.15,2013-05-19 10:51:00,
2013-05-19 06:57:00,56.5,49.0,29.94,East,88,1.0,4.0,76,0.00,,,0.00,37,Wunderground v.1.15,2013-05-19 10:57:00,
2013-05-19 07:03:00,56.6,49.5,29.94,East,85,2.0,4.0,77,0.00,,,0.00,39,Wunderground v.1.15,2013-05-19 11:03:00,
2013-05-19 07:09:00,56.5,49.7,29.94,ENE,78,3.0,4.0,78,0.00,,,0.00,53,Wunderground v.1.15,2013-05-19 11:09:00,
2013-05-19 07:15:00,56.7,50.0,29.95,ENE,71,1.0,-999.0,77,-99.99,,,0.00,,weatherlink.com 1.10,2013-05-19 11:15:00,
2013-05-19 07:20:00,57.1,49.6,29.95,ENE,78,3.0,3.0,76,0.00,,,0.00,88,Wunderground v.1.15,2013-05-19 11:20:00,
2013-05-19 07:26:00,57.3,49.8,29.95,ENE,76,2.0,4.0,76,0.00,,,0.00,107,Wunderground v.1.15,2013-05-19 11:26:00,
2013-05-19 07:31:00,57.6,49.7,29.95,East,80,2.0,4.0,75,0.00,,,0.00,125,Wunderground v.1.15,2013-05-19 11:31:00,
2013-05-19 07:37:00,58.1,50.2,29.95,ENE,76,2.0,4.0,75,0.00,,,0.00,137,Wunderground v.1.15,2013-05-19 11:37:00,
2013-05-19 07:43:00,58.6,50.3,29.95,ENE,73,2.0,4.0,74,0.00,,,0.00,153,Wunderground v.1.15,2013-05-19 11:43:00,
2013-05-19 07:49:00,58.7,50.1,29.95,East,83,3.0,5.0,73,0.00,,,0.00,165,Wunderground v.1.15,2013-05-19 11:49:00,
2013-05-19 07:54:00,58.9,50.6,29.94,ENE,76,4.0,4.0,74,0.00,,,0.00,179,Wunderground v.1.15,2013-05-19 11:54:00,
2013-05-19 08:00:00,59.3,51.0,29.94,ESE,115,2.0,-999.0,73,-99.99,,,0.00,,weatherlink.com 1.10,2013-05-19 12:00:00,
2013-05-19 08:05:00,60.0,50.6,29.93,ENE,77,2.0,5.0,71,0.00,,,0.00,220,Wunderground v.1.15,2013-05-19 12:05:00,
2013-05-19 08:11:00,60.5,51.0,29.94,East,101,2.0,5.0,71,0.00,,,0.00,237,Wunderground v.1.15,2013-05-19 12:11:00,
2013-05-19 08:17:00,60.9,51.4,29.94,ESE,111,2.0,5.0,71,0.00,,,0.00,258,Wunderground v.1.15,2013-05-19 12:17:00,
2013-05-19 08:22:00,61.5,51.2,29.94,East,82,2.0,5.0,69,0.00,,,0.00,274,Wunderground v.1.15,2013-05-19 12:22:00,
2013-05-19 08:28:00,61.9,51.2,29.94,East,84,3.0,5.0,68,0.00,,,0.00,292,Wunderground v.1.15,2013-05-19 12:28:00,
2013-05-19 08:33:00,62.3,51.6,29.94,SE,125,2.0,5.0,68,0.00,,,0.00,311,Wunderground v.1.15,2013-05-19 12:33:00,
2013-05-19 08:39:00,62.9,52.6,29.94,South,174,0.0,5.0,69,0.00,,,0.00,329,Wunderground v.1.15,2013-05-19 12:39:00,
2013-05-19 08:45:00,63.7,52.0,29.95,SSE,168,0.0,-999.0,67,-99.99,,,0.00,,weatherlink.com 1.10,2013-05-19 12:45:00,
2013-05-19 08:50:00,64.3,52.7,29.95,SSE,161,0.0,5.0,66,0.00,,,0.00,359,Wunderground v.1.15,2013-05-19 12:50:00,
2013-05-19 08:56:00,64.2,53.0,29.95,ENE,74,0.0,5.0,67,0.00,,,0.00,383,Wunderground v.1.15,2013-05-19 12:56:00,
2013-05-19 09:01:00,64.5,53.3,29.95,ENE,74,0.0,6.0,67,0.00,,,0.00,394,Wunderground v.1.15,2013-05-19 13:01:00,
2013-05-19 09:07:00,64.8,53.2,29.95,ENE,74,0.0,6.0,66,0.00,,,0.00,403,Wunderground v.1.15,2013-05-19 13:07:00,
2013-05-19 09:13:00,65.1,53.5,29.96,ENE,74,0.0,6.0,66,0.00,,,0.00,427,Wunderground v.1.15,2013-05-19 13:13:00,
2013-05-19 09:19:00,65.4,54.2,29.96,ENE,74,0.0,6.0,67,0.00,,,0.00,448,Wunderground v.1.15,2013-05-19 13:19:00,
2013-05-19 09:25:00,65.7,54.4,29.96,ENE,74,0.0,6.0,67,0.00,,,0.00,466,Wunderground v.1.15,2013-05-19 13:25:00,
2013-05-19 09:31:00,65.7,54.0,29.96,ENE,74,0.0,-999.0,67,-99.99,,,0.00,,weatherlink.com 1.10,2013-05-19 13:31:00,
2013-05-19 09:36:00,66.4,56.3,29.96,ENE,74,1.0,6.0,70,0.00,,,0.00,499,Wunderground v.1.15,2013-05-19 13:36:00,
2013-05-19 09:42:00,67.5,57.0,29.97,ENE,74,0.0,6.0,69,0.00,,,0.00,519,Wunderground v.1.15,2013-05-19 13:42:00,
2013-05-19 09:48:00,67.8,56.4,29.97,ENE,74,0.0,6.0,67,0.00,,,0.00,527,Wunderground v.1.15,2013-05-19 13:48:00,
2013-05-19 09:54:00,68.5,56.7,29.96,East,100,0.0,6.0,66,0.00,,,0.00,552,Wunderground v.1.15,2013-05-19 13:54:00,
2013-05-19 09:59:00,69.3,57.0,29.95,East,99,0.0,6.0,65,0.00,,,0.00,571,Wunderground v.1.15,2013-05-19 13:59:00,
2013-05-19 10:05:00,69.9,58.0,29.95,East,101,0.0,4.0,66,0.00,,,0.00,591,Wunderground v.1.15,2013-05-19 14:05:00,
2013-05-19 10:10:00,70.5,58.6,29.96,East,101,0.0,4.0,66,0.00,,,0.00,585,Wunderground v.1.15,2013-05-19 14:10:00,
2013-05-19 10:16:00,71.4,58.6,29.96,East,101,0.0,4.0,64,0.00,,,0.00,612,Wunderground v.1.15,2013-05-19 14:16:00,
2013-05-19 10:21:00,71.9,58.6,29.95,East,101,0.0,4.0,63,0.00,,,0.00,617,Wunderground v.1.15,2013-05-19 14:21:00,
2013-05-19 10:27:00,72.1,59.7,29.94,SSW,207,0.0,4.0,65,0.00,,,0.00,638,Wunderground v.1.15,2013-05-19 14:27:00,
2013-05-19 10:33:00,72.1,60.5,29.94,SSW,199,1.0,4.0,67,0.00,,,0.00,659,Wunderground v.1.15,2013-05-19 14:33:00,
2013-05-19 10:39:00,72.6,60.6,29.94,SSW,213,1.0,4.0,66,0.00,,,0.00,682,Wunderground v.1.15,2013-05-19 14:39:00,
2013-05-19 10:45:00,73.5,62.0,29.94,NE,52,1.0,-999.0,67,-99.99,,,0.00,,weatherlink.com 1.10,2013-05-19 14:45:00,
2013-05-19 10:50:00,74.4,62.3,29.93,SSW,196,1.0,1.0,66,0.00,,,0.00,707,Wunderground v.1.15,2013-05-19 14:50:00,
2013-05-19 10:56:00,75.1,62.1,29.93,South,172,1.0,4.0,64,0.00,,,0.00,714,Wunderground v.1.15,2013-05-19 14:56:00,
2013-05-19 11:01:00,75.7,62.2,29.93,ESE,123,2.0,5.0,63,0.00,,,0.00,731,Wunderground v.1.15,2013-05-19 15:01:00,
2013-05-19 11:07:00,76.2,63.1,29.93,South,186,1.0,5.0,64,0.00,,,0.00,745,Wunderground v.1.15,2013-05-19 15:07:00,
2013-05-19 11:12:00,76.5,63.0,29.93,NE,45,1.0,5.0,63,0.00,,,0.00,765,Wunderground v.1.15,2013-05-19 15:12:00,
2013-05-19 11:18:00,76.6,63.1,29.93,SSW,202,2.0,7.0,63,0.00,,,0.00,789,Wunderground v.1.15,2013-05-19 15:18:00,
2013-05-19 11:24:00,76.8,63.2,29.93,ESE,123,2.0,5.0,63,0.00,,,0.00,798,Wunderground v.1.15,2013-05-19 15:24:00,
2013-05-19 11:30:00,77.5,63.0,29.93,SE,130,3.0,-999.0,61,-99.99,,,0.00,,weatherlink.com 1.10,2013-05-19 15:30:00,
2013-05-19 11:35:00,77.5,63.0,29.93,ESE,106,1.0,5.0,61,0.00,,,0.00,826,Wunderground v.1.15,2013-05-19 15:35:00,
2013-05-19 11:41:00,77.8,64.2,29.93,ESE,102,1.0,5.0,63,0.00,,,0.00,844,Wunderground v.1.15,2013-05-19 15:41:00,
2013-05-19 11:47:00,78.3,62.8,29.93,ESE,122,0.0,5.0,59,0.00,,,0.00,847,Wunderground v.1.15,2013-05-19 15:47:00,
2013-05-19 11:52:00,78.4,63.4,29.93,ESE,122,0.0,5.0,60,0.00,,,0.00,860,Wunderground v.1.15,2013-05-19 15:52:00,
2013-05-19 11:58:00,78.5,63.9,29.93,ESE,122,1.0,6.0,61,0.00,,,0.00,870,Wunderground v.1.15,2013-05-19 15:58:00,
2013-05-19 12:04:00,79.1,64.0,29.93,SSW,192,1.0,7.0,60,0.00,,,0.00,874,Wunderground v.1.15,2013-05-19 16:04:00,
2013-05-19 12:09:00,79.5,63.4,29.93,SE,124,1.0,7.0,58,0.00,,,0.00,872,Wunderground v.1.15,2013-05-19 16:09:00,
2013-05-19 12:15:00,79.4,63.0,29.93,SSE,164,1.0,-999.0,57,-99.99,,,0.00,,weatherlink.com 1.10,2013-05-19 16:15:00,
2013-05-19 12:20:00,79.5,64.9,29.93,SSW,195,2.0,7.0,61,0.00,,,0.00,900,Wunderground v.1.15,2013-05-19 16:20:00,
2013-05-19 12:26:00,79.2,63.6,29.93,SSW,210,4.0,10.0,59,0.00,,,0.00,932,Wunderground v.1.15,2013-05-19 16:26:00,
2013-05-19 12:31:00,78.9,63.8,29.93,SW,228,5.0,7.0,60,0.00,,,0.00,933,Wunderground v.1.15,2013-05-19 16:31:00,
2013-05-19 12:37:00,79.7,64.6,29.93,NNE,27,1.0,7.0,60,0.00,,,0.00,983,Wunderground v.1.15,2013-05-19 16:37:00,
2013-05-19 12:43:00,81.1,64.4,29.93,SE,146,0.0,7.0,57,0.00,,,0.00,1046,Wunderground v.1.15,2013-05-19 16:43:00,
2013-05-19 12:48:00,80.9,62.7,29.93,WSW,246,1.0,7.0,54,0.00,,,0.00,1037,Wunderground v.1.15,2013-05-19 16:48:00,
2013-05-19 12:54:00,80.9,63.7,29.93,NE,45,1.0,7.0,56,0.00,,,0.00,1095,Wunderground v.1.15,2013-05-19 16:54:00,
2013-05-19 13:00:00,81.3,62.0,29.93,South,170,0.0,-999.0,53,-99.99,,,0.00,,weatherlink.com 1.10,2013-05-19 17:00:00,
2013-05-19 13:05:00,81.3,62.0,29.92,SW,223,4.0,18.0,52,0.00,,,0.00,1025,Wunderground v.1.15,2013-05-19 17:05:00,
2013-05-19 13:11:00,81.4,63.7,29.92,SW,226,3.0,18.0,55,0.00,,,0.00,1051,Wunderground v.1.15,2013-05-19 17:11:00,
2013-05-19 13:17:00,82.0,63.2,29.92,SSE,147,1.0,18.0,53,0.00,,,0.00,510,Wunderground v.1.15,2013-05-19 17:17:00,
2013-05-19 13:22:00,82.0,64.2,29.92,South,190,0.0,18.0,55,0.00,,,0.00,323,Wunderground v.1.15,2013-05-19 17:22:00,
2013-05-19 13:28:00,81.1,62.3,29.92,SSW,197,1.0,18.0,53,0.00,,,0.00,352,Wunderground v.1.15,2013-05-19 17:28:00,
2013-05-19 13:34:00,81.0,62.3,29.91,SSW,197,1.0,18.0,53,0.00,,,0.00,362,Wunderground v.1.15,2013-05-19 17:34:00,
2013-05-19 13:40:00,80.2,62.6,29.91,West,264,1.0,1.0,55,0.00,,,0.00,325,Wunderground v.1.15,2013-05-19 17:40:00,
2013-05-19 13:45:00,80.3,63.2,29.91,SSW,195,1.0,18.0,56,0.00,,,0.00,327,Wunderground v.1.15,2013-05-19 17:45:00,
2013-05-19 13:51:00,80.8,63.1,29.91,SSW,196,0.0,18.0,55,0.00,,,0.00,359,Wunderground v.1.15,2013-05-19 17:51:00,
2013-05-19 13:57:00,81.1,63.4,29.90,WSW,252,2.0,18.0,55,0.00,,,0.00,348,Wunderground v.1.15,2013-05-19 17:57:00,
2013-05-19 14:02:00,80.5,62.3,29.90,WSW,244,3.0,5.0,54,0.00,,,0.00,229,Wunderground v.1.15,2013-05-19 18:02:00,
2013-05-19 14:08:00,79.8,62.2,29.89,SW,228,2.0,7.0,55,0.00,,,0.00,243,Wunderground v.1.15,2013-05-19 18:08:00,
2013-05-19 14:13:00,79.9,62.3,29.89,SW,217,1.0,7.0,55,0.00,,,0.00,327,Wunderground v.1.15,2013-05-19 18:13:00,
2013-05-19 14:19:00,80.3,63.2,29.89,SSW,199,1.0,7.0,56,0.00,,,0.00,420,Wunderground v.1.15,2013-05-19 18:19:00,
2013-05-19 14:25:00,81.1,62.3,29.89,SSW,213,2.0,7.0,53,0.00,,,0.00,803,Wunderground v.1.15,2013-05-19 18:25:00,
2013-05-19 14:31:00,81.3,62.0,29.88,SW,226,0.0,-999.0,52,-99.99,,,0.00,,weatherlink.com 1.10,2013-05-19 18:31:00,
2013-05-19 14:36:00,81.7,62.4,29.88,West,260,3.0,7.0,52,0.00,,,0.00,1063,Wunderground v.1.15,2013-05-19 18:36:00,
2013-05-19 14:42:00,82.1,63.3,29.88,SSW,202,3.0,7.0,53,0.00,,,0.00,986,Wunderground v.1.15,2013-05-19 18:42:00,
2013-05-19 14:48:00,82.7,63.8,29.88,ESE,113,1.0,7.0,53,0.00,,,0.00,932,Wunderground v.1.15,2013-05-19 18:48:00,
2013-05-19 14:54:00,82.3,61.8,29.88,NE,47,0.0,7.0,50,0.00,,,0.00,932,Wunderground v.1.15,2013-05-19 18:54:00,
2013-05-19 15:00:00,82.3,62.0,29.88,NW,307,2.0,-999.0,51,-99.99,,,0.00,,weatherlink.com 1.10,2013-05-19 19:00:00,
2013-05-19 15:05:00,82.7,62.2,29.87,WSW,245,4.0,10.0,50,0.00,,,0.00,963,Wunderground v.1.15,2013-05-19 19:05:00,
2013-05-19 15:10:00,82.9,62.4,29.87,West,268,5.0,5.0,50,0.00,,,0.00,967,Wunderground v.1.15,2013-05-19 19:10:00,
2013-05-19 15:16:00,83.7,64.2,29.86,SSW,194,1.0,9.0,52,0.00,,,0.00,984,Wunderground v.1.15,2013-05-19 19:16:00,
2013-05-19 15:21:00,83.8,62.0,29.86,SSW,194,2.0,9.0,48,0.00,,,0.00,932,Wunderground v.1.15,2013-05-19 19:21:00,
2013-05-19 15:27:00,84.0,63.4,29.85,SE,138,1.0,9.0,50,0.00,,,0.00,879,Wunderground v.1.15,2013-05-19 19:27:00,
2013-05-19 15:33:00,84.8,63.5,29.85,WSW,238,0.0,9.0,49,0.00,,,0.00,900,Wunderground v.1.15,2013-05-19 19:33:00,
2013-05-19 15:38:00,85.1,62.6,29.85,SSW,202,3.0,10.0,47,0.00,,,0.00,875,Wunderground v.1.15,2013-05-19 19:38:00,
2013-05-19 15:44:00,84.8,61.7,29.84,SSW,208,3.0,9.0,46,0.00,,,0.00,840,Wunderground v.1.15,2013-05-19 19:44:00,
2013-05-19 15:50:00,84.9,61.8,29.84,SSW,197,3.0,3.0,46,0.00,,,0.00,819,Wunderground v.1.15,2013-05-19 19:50:00,
2013-05-19 15:56:00,85.6,61.2,29.83,East,89,2.0,9.0,44,0.00,,,0.00,823,Wunderground v.1.15,2013-05-19 19:56:00,
2013-05-19 16:01:00,86.1,61.6,29.83,ESE,115,1.0,10.0,44,0.00,,,0.00,814,Wunderground v.1.15,2013-05-19 20:01:00,
2013-05-19 16:07:00,86.2,62.4,29.83,ESE,111,1.0,12.0,45,0.00,,,0.00,796,Wunderground v.1.15,2013-05-19 20:07:00,
2013-05-19 16:12:00,86.5,61.3,29.82,East,90,0.0,12.0,43,0.00,,,0.00,784,Wunderground v.1.15,2013-05-19 20:12:00,
2013-05-19 16:18:00,85.9,63.3,29.82,North,11,1.0,12.0,47,0.00,,,0.00,777,Wunderground v.1.15,2013-05-19 20:18:00,
2013-05-19 16:24:00,86.3,61.8,29.82,South,171,0.0,12.0,44,0.00,,,0.00,756,Wunderground v.1.15,2013-05-19 20:24:00,
2013-05-19 16:30:00,86.4,62.0,29.82,East,81,2.0,-999.0,44,-99.99,,,0.00,,weatherlink.com 1.10,2013-05-19 20:30:00,
2013-05-19 16:35:00,85.8,62.0,29.82,ESE,118,1.0,12.0,45,0.00,,,0.00,700,Wunderground v.1.15,2013-05-19 20:35:00,
2013-05-19 16:41:00,85.7,61.3,29.82,East,90,1.0,12.0,44,0.00,,,0.00,687,Wunderground v.1.15,2013-05-19 20:41:00,
2013-05-19 16:47:00,85.8,61.4,29.83,ESE,111,1.0,12.0,44,0.00,,,0.00,197,Wunderground v.1.15,2013-05-19 20:47:00,
2013-05-19 16:52:00,86.0,62.2,29.83,North,360,1.0,12.0,45,0.00,,,0.00,188,Wunderground v.1.15,2013-05-19 20:52:00,
2013-05-19 16:58:00,85.7,61.9,29.82,NNE,25,0.0,12.0,45,0.00,,,0.00,684,Wunderground v.1.15,2013-05-19 20:58:00,
2013-05-19 17:04:00,86.0,60.9,29.82,East,91,1.0,6.0,43,0.00,,,0.00,666,Wunderground v.1.15,2013-05-19 21:04:00,
2013-05-19 17:10:00,86.7,62.8,29.83,ENE,61,1.0,1.0,45,0.00,,,0.00,664,Wunderground v.1.15,2013-05-19 21:10:00,
2013-05-19 17:15:00,87.0,62.0,29.83,ESE,115,0.0,-999.0,43,-99.99,,,0.00,,weatherlink.com 1.10,2013-05-19 21:15:00,
2013-05-19 17:20:00,86.7,61.5,29.83,SSW,198,1.0,6.0,43,0.00,,,0.00,338,Wunderground v.1.15,2013-05-19 21:20:00,
2013-05-19 17:26:00,85.5,61.7,29.83,SSW,206,3.0,9.0,45,0.00,,,0.00,223,Wunderground v.1.15,2013-05-19 21:26:00,
2013-05-19 17:32:00,85.4,62.3,29.83,SSE,159,2.0,6.0,46,0.00,,,0.00,213,Wunderground v.1.15,2013-05-19 21:32:00,
2013-05-19 17:38:00,85.4,62.3,29.84,SSE,149,0.0,6.0,46,0.00,,,0.00,221,Wunderground v.1.15,2013-05-19 21:38:00,
2013-05-19 17:44:00,85.7,61.9,29.83,East,80,1.0,6.0,45,0.00,,,0.00,519,Wunderground v.1.15,2013-05-19 21:44:00,
2013-05-19 17:50:00,85.8,62.0,29.83,SSW,199,1.0,1.0,45,0.00,,,0.00,156,Wunderground v.1.15,2013-05-19 21:50:00,
2013-05-19 17:55:00,85.7,62.5,29.83,SSE,165,1.0,6.0,46,0.00,,,0.00,492,Wunderground v.1.15,2013-05-19 21:55:00,
2013-05-19 18:00:00,85.6,62.0,29.83,SW,225,0.0,-999.0,46,-99.99,,,0.00,,weatherlink.com 1.10,2013-05-19 22:00:00,
2013-05-19 18:06:00,85.8,62.0,29.82,ENE,61,0.0,11.0,45,0.00,,,0.00,466,Wunderground v.1.15,2013-05-19 22:06:00,
2013-05-19 18:11:00,86.1,61.6,29.82,East,98,0.0,11.0,44,0.00,,,0.00,441,Wunderground v.1.15,2013-05-19 22:11:00,
2013-05-19 18:17:00,86.5,62.0,29.82,SSW,202,1.0,11.0,44,0.00,,,0.00,429,Wunderground v.1.15,2013-05-19 22:17:00,
2013-05-19 18:23:00,86.8,62.3,29.82,NE,52,1.0,11.0,44,0.00,,,0.00,417,Wunderground v.1.15,2013-05-19 22:23:00,
2013-05-19 18:29:00,86.9,61.7,29.83,SSW,197,1.0,11.0,43,0.00,,,0.00,399,Wunderground v.1.15,2013-05-19 22:29:00,
2013-05-19 18:34:00,86.8,61.6,29.83,SW,232,1.0,11.0,43,0.00,,,0.00,387,Wunderground v.1.15,2013-05-19 22:34:00,
2013-05-19 18:40:00,86.8,62.3,29.83,North,11,0.0,11.0,44,0.00,,,0.00,327,Wunderground v.1.15,2013-05-19 22:40:00,
2013-05-19 18:46:00,86.5,60.7,29.82,SW,218,2.0,11.0,42,0.00,,,0.00,193,Wunderground v.1.15,2013-05-19 22:46:00,
2013-05-19 18:52:00,85.9,60.1,29.82,SSW,192,5.0,11.0,42,0.00,,,0.00,343,Wunderground v.1.15,2013-05-19 22:52:00,
2013-05-19 18:58:00,86.0,62.2,29.81,SW,219,2.0,11.0,45,0.00,,,0.00,306,Wunderground v.1.15,2013-05-19 22:58:00,
2013-05-19 19:03:00,86.2,61.7,29.81,WNW,294,1.0,10.0,44,0.00,,,0.00,279,Wunderground v.1.15,2013-05-19 23:03:00,
2013-05-19 19:09:00,85.8,62.0,29.80,South,174,1.0,10.0,45,0.00,,,0.00,255,Wunderground v.1.15,2013-05-19 23:09:00,
2013-05-19 19:15:00,85.6,62.0,29.80,SE,142,1.0,-999.0,45,-99.99,,,0.00,,weatherlink.com 1.10,2013-05-19 23:15:00,
2013-05-19 19:20:00,85.6,61.8,29.81,SSW,209,1.0,1.0,45,0.00,,,0.00,218,Wunderground v.1.15,2013-05-19 23:20:00,
2013-05-19 19:25:00,85.6,62.4,29.81,SSW,203,0.0,7.0,46,0.00,,,0.00,204,Wunderground v.1.15,2013-05-19 23:25:00,
2013-05-19 19:30:00,85.3,62.0,29.81,SSW,195,0.0,-999.0,45,-99.99,,,0.00,,weatherlink.com 1.10,2013-05-19 23:30:00,
2013-05-19 19:35:00,85.1,62.0,29.81,North,350,1.0,7.0,46,0.00,,,0.00,169,Wunderground v.1.15,2013-05-19 23:35:00,
2013-05-19 19:41:00,85.0,62.5,29.81,SE,125,0.0,7.0,47,0.00,,,0.00,149,Wunderground v.1.15,2013-05-19 23:41:00,
2013-05-19 19:46:00,84.6,62.1,29.81,SSW,211,1.0,7.0,47,0.00,,,0.00,118,Wunderground v.1.15,2013-05-19 23:46:00,
2013-05-19 19:52:00,84.4,62.0,29.82,SSW,213,1.0,6.0,47,0.00,,,0.00,113,Wunderground v.1.15,2013-05-19 23:52:00,
2013-05-19 19:58:00,84.1,62.3,29.82,SSW,203,1.0,7.0,48,0.00,,,0.00,91,Wunderground v.1.15,2013-05-19 23:58:00,
2013-05-19 20:03:00,83.7,61.9,29.81,NNE,13,1.0,9.0,48,0.00,,,0.00,84,Wunderground v.1.15,2013-05-20 00:03:00,
2013-05-19 20:09:00,83.3,62.1,29.81,SSW,194,0.0,9.0,49,0.00,,,0.00,65,Wunderground v.1.15,2013-05-20 00:09:00,
2013-05-19 20:15:00,82.8,62.3,29.80,NW,310,0.0,9.0,50,0.00,,,0.00,42,Wunderground v.1.15,2013-05-20 00:15:00,
2013-05-19 20:20:00,82.3,61.8,29.81,NNE,25,0.0,9.0,50,0.00,,,0.00,30,Wunderground v.1.15,2013-05-20 00:20:00,
2013-05-19 20:26:00,81.8,61.9,29.81,SSE,150,0.0,9.0,51,0.00,,,0.00,23,Wunderground v.1.15,2013-05-20 00:26:00,
2013-05-19 20:32:00,81.3,62.0,29.81,ENE,76,0.0,9.0,52,0.00,,,0.00,18,Wunderground v.1.15,2013-05-20 00:32:00,
2013-05-19 20:37:00,80.8,62.1,29.81,East,91,0.0,9.0,53,0.00,,,0.00,12,Wunderground v.1.15,2013-05-20 00:37:00,
2013-05-19 20:43:00,80.4,62.2,29.81,East,94,0.0,9.0,54,0.00,,,0.00,9,Wunderground v.1.15,2013-05-20 00:43:00,
2013-05-19 20:48:00,80.0,62.4,29.81,East,94,0.0,9.0,55,0.00,,,0.00,5,Wunderground v.1.15,2013-05-20 00:48:00,
2013-05-19 20:53:00,79.6,62.0,29.81,East,94,0.0,9.0,55,0.00,,,0.00,0,Wunderground v.1.15,2013-05-20 00:53:00,
2013-05-19 20:59:00,79.2,62.1,29.81,East,94,0.0,9.0,56,0.00,,,0.00,0,Wunderground v.1.15,2013-05-20 00:59:00,
2013-05-19 21:04:00,79.0,62.0,29.80,East,94,0.0,3.0,56,0.00,,,0.00,0,Wunderground v.1.15,2013-05-20 01:04:00,
2013-05-19 21:09:00,78.8,61.8,29.81,East,94,0.0,3.0,56,0.00,,,0.00,0,Wunderground v.1.15,2013-05-20 01:09:00,
2013-05-19 21:15:00,78.6,62.0,29.80,East,94,0.0,-999.0,57,-99.99,,,0.00,,weatherlink.com 1.10,2013-05-20 01:15:00,
2013-05-19 21:21:00,78.3,62.3,29.81,East,94,0.0,3.0,58,0.00,,,0.00,0,Wunderground v.1.15,2013-05-20 01:21:00,
2013-05-19 21:27:00,78.0,62.0,29.81,East,94,0.0,3.0,58,0.00,,,0.00,0,Wunderground v.1.15,2013-05-20 01:27:00,
2013-05-19 21:32:00,77.8,61.8,29.81,ESE,107,0.0,3.0,58,0.00,,,0.00,0,Wunderground v.1.15,2013-05-20 01:32:00,
2013-05-19 21:38:00,77.5,62.0,29.81,ESE,119,0.0,3.0,59,0.00,,,0.00,0,Wunderground v.1.15,2013-05-20 01:38:00,
2013-05-19 21:44:00,77.2,61.8,29.83,ESE,118,0.0,3.0,59,0.00,,,0.00,0,Wunderground v.1.15,2013-05-20 01:44:00,
2013-05-19 21:50:00,77.1,62.1,29.83,SSE,148,1.0,1.0,60,0.00,,,0.00,0,Wunderground v.1.15,2013-05-20 01:50:00,
2013-05-19 21:56:00,76.9,62.4,29.83,SSE,148,0.0,3.0,61,0.00,,,0.00,0,Wunderground v.1.15,2013-05-20 01:56:00,
2013-05-19 22:01:00,76.5,62.5,29.83,SSE,148,0.0,3.0,62,0.00,,,0.00,0,Wunderground v.1.15,2013-05-20 02:01:00,
2013-05-19 22:07:00,76.2,62.2,29.84,SSE,148,0.0,3.0,62,0.00,,,0.00,0,Wunderground v.1.15,2013-05-20 02:07:00,
2013-05-19 22:13:00,75.9,62.4,29.84,SSE,148,0.0,3.0,63,0.00,,,0.00,0,Wunderground v.1.15,2013-05-20 02:13:00,
2013-05-19 22:18:00,75.6,62.1,29.84,SSE,148,0.0,3.0,63,0.00,,,0.00,0,Wunderground v.1.15,2013-05-20 02:18:00,
2013-05-19 22:24:00,75.5,62.0,29.84,SSE,148,0.0,3.0,63,0.00,,,0.00,0,Wunderground v.1.15,2013-05-20 02:24:00,
2013-05-19 22:30:00,75.3,62.3,29.84,SSE,148,0.0,3.0,64,0.00,,,0.00,0,Wunderground v.1.15,2013-05-20 02:30:00,
2013-05-19 22:36:00,75.2,62.2,29.84,South,182,0.0,3.0,64,0.00,,,0.00,0,Wunderground v.1.15,2013-05-20 02:36:00,
2013-05-19 22:42:00,75.1,62.1,29.84,South,182,0.0,3.0,64,0.00,,,0.00,0,Wunderground v.1.15,2013-05-20 02:42:00,
2013-05-19 22:48:00,74.9,62.3,29.84,South,182,0.0,3.0,65,0.00,,,0.00,0,Wunderground v.1.15,2013-05-20 02:48:00,
2013-05-19 22:53:00,74.8,62.7,29.84,South,182,0.0,3.0,66,0.00,,,0.00,0,Wunderground v.1.15,2013-05-20 02:53:00,
2013-05-19 22:59:00,74.5,62.4,29.84,South,182,0.0,3.0,66,0.00,,,0.00,0,Wunderground v.1.15,2013-05-20 02:59:00,
2013-05-19 23:05:00,74.3,62.6,29.85,South,182,0.0,1.0,67,0.00,,,0.00,0,Wunderground v.1.15,2013-05-20 03:05:00,
2013-05-19 23:10:00,74.2,62.5,29.85,South,182,0.0,1.0,67,0.00,,,0.00,0,Wunderground v.1.15,2013-05-20 03:10:00,
2013-05-19 23:16:00,74.0,63.0,29.85,South,182,0.0,-999.0,68,-99.99,,,0.00,,weatherlink.com 1.10,2013-05-20 03:16:00,
2013-05-19 23:21:00,73.9,62.7,29.85,South,182,0.0,1.0,68,0.00,,,0.00,0,Wunderground v.1.15,2013-05-20 03:21:00,
2013-05-19 23:26:00,73.8,62.6,29.85,South,182,0.0,1.0,68,0.00,,,0.00,0,Wunderground v.1.15,2013-05-20 03:26:00,
2013-05-19 23:32:00,73.7,62.5,29.85,South,182,0.0,1.0,68,0.00,,,0.00,0,Wunderground v.1.15,2013-05-20 03:32:00,
2013-05-19 23:38:00,73.6,62.4,29.85,South,170,0.0,1.0,68,0.00,,,0.00,0,Wunderground v.1.15,2013-05-20 03:38:00,
2013-05-19 23:43:00,73.5,62.7,29.85,South,170,0.0,1.0,69,0.00,,,0.00,0,Wunderground v.1.15,2013-05-20 03:43:00,
2013-05-19 23:49:00,73.4,62.6,29.85,South,171,0.0,1.0,69,0.00,,,0.00,0,Wunderground v.1.15,2013-05-20 03:49:00,
2013-05-19 23:55:00,73.2,62.4,29.85,South,171,0.0,1.0,69,0.00,,,0.00,0,Wunderground v.1.15,2013-05-20 03:55:00,